الصفحة الرئيسية
METAR-TAF:

METAR-TAF

مطار :

باغوسا سبرينغز, كولورادو, الولايات المتحدة

دائرة عرض: 37-17-17N, خط طول: 107-03-18W, ارتفاع: 2334 متر

مراقبة الطقس الحالي

تاريخ ووقت الإصدار 28 دقيقة قبل الساعة 15:35UTC
رياح هادئة
درجة الحرارة 9°درجة مئوية
الرطوبة 66%
ضغط 1021 hPa
الرؤية: 16.1 كم
سماء صافية

METAR: KPSO 241535Z AUTO 00000KT 10SM CLR 09/03 A3016 RMK AO2 T00930027

زمن: 10:03 (16:03 UTC)


TAF: مفقودة

أرصاد الطقس والتوقعات من أكثر من 4000 مطار (تقارير الطقس للمطار METAR والتنبؤ بالطقس بالمطارTAF).

المحطات المتاحة هي النقط الصفراء والحمراء على الخريطة.

حرك المؤشر فوق النقطة لمعرفة اسم المحطة.

ثم انقر لمعرفة أرصاد وتوقعات الطقس.

لتغيير الخارطة: اضغط على الأزرار الخضراء مع رمز الصليب الأسود للتكبير. على الزر الأخضر مع شرطة للتصغير، أو على الأسهم الخضراء للخرائط المجاورة.


METAR-TAF: